sensor_id;sensor_type;location;lat;lon;timestamp;P1;durP1;ratioP1;P2;durP2;ratioP2
73150;SDS011;61354;50.758;6.106;2023-04-15T00:01:14;3.17;;;2.08;;
73150;SDS011;61354;50.758;6.106;2023-04-15T00:03:43;4.97;;;1.70;;
73150;SDS011;61354;50.758;6.106;2023-04-15T00:06:09;2.42;;;1.38;;
73150;SDS011;61354;50.758;6.106;2023-04-15T00:08:35;5.00;;;1.40;;
73150;SDS011;61354;50.758;6.106;2023-04-15T00:11:00;4.07;;;1.80;;
73150;SDS011;61354;50.758;6.106;2023-04-15T00:13:29;3.80;;;1.70;;
73150;SDS011;61354;50.758;6.106;2023-04-15T00:15:59;4.72;;;1.70;;
73150;SDS011;61354;50.758;6.106;2023-04-15T00:18:24;5.82;;;2.15;;
73150;SDS011;61354;50.758;6.106;2023-04-15T00:20:50;4.90;;;1.80;;
73150;SDS011;61354;50.758;6.106;2023-04-15T00:23:16;4.53;;;1.65;;
73150;SDS011;61354;50.758;6.106;2023-04-15T00:25:42;3.97;;;1.67;;
73150;SDS011;61354;50.758;6.106;2023-04-15T00:28:08;4.07;;;1.38;;
73150;SDS011;61354;50.758;6.106;2023-04-15T00:30:34;3.38;;;1.77;;
73150;SDS011;61354;50.758;6.106;2023-04-15T00:33:00;4.78;;;1.83;;
73150;SDS011;61354;50.758;6.106;2023-04-15T00:35:28;3.05;;;1.65;;
73150;SDS011;61354;50.758;6.106;2023-04-15T00:37:57;3.15;;;1.50;;
73150;SDS011;61354;50.758;6.106;2023-04-15T00:40:23;2.90;;;1.35;;
73150;SDS011;61354;50.758;6.106;2023-04-15T00:42:49;2.70;;;1.42;;
73150;SDS011;61354;50.758;6.106;2023-04-15T00:45:14;2.88;;;1.40;;
73150;SDS011;61354;50.758;6.106;2023-04-15T00:47:40;3.90;;;1.50;;
73150;SDS011;61354;50.758;6.106;2023-04-15T00:50:08;4.28;;;1.55;;
73150;SDS011;61354;50.758;6.106;2023-04-15T00:52:34;2.67;;;1.60;;
73150;SDS011;61354;50.758;6.106;2023-04-15T00:55:00;2.53;;;1.60;;
73150;SDS011;61354;50.758;6.106;2023-04-15T00:57:27;4.75;;;1.70;;
73150;SDS011;61354;50.758;6.106;2023-04-15T00:59:54;2.83;;;1.45;;
73150;SDS011;61354;50.758;6.106;2023-04-15T01:02:21;4.75;;;1.40;;
73150;SDS011;61354;50.758;6.106;2023-04-15T01:04:47;3.15;;;1.60;;
73150;SDS011;61354;50.758;6.106;2023-04-15T01:07:12;2.22;;;1.40;;
73150;SDS011;61354;50.758;6.106;2023-04-15T01:09:39;3.60;;;1.50;;
73150;SDS011;61354;50.758;6.106;2023-04-15T01:12:05;4.57;;;1.55;;
73150;SDS011;61354;50.758;6.106;2023-04-15T01:14:33;3.10;;;1.60;;
73150;SDS011;61354;50.758;6.106;2023-04-15T01:16:58;4.45;;;1.60;;
73150;SDS011;61354;50.758;6.106;2023-04-15T01:19:24;3.13;;;1.60;;
73150;SDS011;61354;50.758;6.106;2023-04-15T01:21:51;2.75;;;1.48;;
73150;SDS011;61354;50.758;6.106;2023-04-15T01:24:17;4.68;;;1.60;;
73150;SDS011;61354;50.758;6.106;2023-04-15T01:26:43;3.33;;;1.70;;
73150;SDS011;61354;50.758;6.106;2023-04-15T01:29:09;3.53;;;1.58;;
73150;SDS011;61354;50.758;6.106;2023-04-15T01:31:35;4.68;;;1.40;;
73150;SDS011;61354;50.758;6.106;2023-04-15T01:34:01;4.07;;;1.35;;
73150;SDS011;61354;50.758;6.106;2023-04-15T01:36:27;4.60;;;1.42;;
73150;SDS011;61354;50.758;6.106;2023-04-15T01:38:52;3.63;;;1.55;;
73150;SDS011;61354;50.758;6.106;2023-04-15T01:41:26;1.60;;;1.20;;
73150;SDS011;61354;50.758;6.106;2023-04-15T01:43:52;2.60;;;1.40;;
73150;SDS011;61354;50.758;6.106;2023-04-15T01:46:18;3.72;;;1.52;;
73150;SDS011;61354;50.758;6.106;2023-04-15T01:48:44;3.33;;;1.40;;
73150;SDS011;61354;50.758;6.106;2023-04-15T01:51:09;2.95;;;1.75;;
73150;SDS011;61354;50.758;6.106;2023-04-15T01:53:35;2.33;;;1.30;;
73150;SDS011;61354;50.758;6.106;2023-04-15T01:56:01;2.78;;;1.30;;
73150;SDS011;61354;50.758;6.106;2023-04-15T01:58:27;2.40;;;1.20;;
73150;SDS011;61354;50.758;6.106;2023-04-15T02:00:54;4.93;;;1.52;;
73150;SDS011;61354;50.758;6.106;2023-04-15T02:03:20;2.20;;;1.50;;
73150;SDS011;61354;50.758;6.106;2023-04-15T02:05:46;3.05;;;1.35;;
73150;SDS011;61354;50.758;6.106;2023-04-15T02:08:12;3.42;;;1.30;;
73150;SDS011;61354;50.758;6.106;2023-04-15T02:10:37;4.15;;;1.35;;
73150;SDS011;61354;50.758;6.106;2023-04-15T02:13:03;3.35;;;1.10;;
73150;SDS011;61354;50.758;6.106;2023-04-15T02:15:29;2.65;;;1.35;;
73150;SDS011;61354;50.758;6.106;2023-04-15T02:17:54;3.35;;;1.05;;
73150;SDS011;61354;50.758;6.106;2023-04-15T02:20:21;2.50;;;1.23;;
73150;SDS011;61354;50.758;6.106;2023-04-15T02:22:47;3.00;;;0.98;;
73150;SDS011;61354;50.758;6.106;2023-04-15T02:25:13;2.25;;;0.90;;
73150;SDS011;61354;50.758;6.106;2023-04-15T02:27:40;2.40;;;1.10;;
73150;SDS011;61354;50.758;6.106;2023-04-15T02:30:06;4.07;;;1.13;;
73150;SDS011;61354;50.758;6.106;2023-04-15T02:32:32;4.57;;;1.23;;
73150;SDS011;61354;50.758;6.106;2023-04-15T02:35:01;2.95;;;1.30;;
73150;SDS011;61354;50.758;6.106;2023-04-15T02:37:31;2.00;;;1.10;;
73150;SDS011;61354;50.758;6.106;2023-04-15T02:39:59;3.03;;;1.20;;
73150;SDS011;61354;50.758;6.106;2023-04-15T02:42:25;2.08;;;1.13;;
73150;SDS011;61354;50.758;6.106;2023-04-15T02:44:52;1.92;;;1.10;;
73150;SDS011;61354;50.758;6.106;2023-04-15T02:47:19;3.42;;;1.13;;
73150;SDS011;61354;50.758;6.106;2023-04-15T02:49:44;2.60;;;1.00;;
73150;SDS011;61354;50.758;6.106;2023-04-15T02:52:10;2.97;;;1.27;;
73150;SDS011;61354;50.758;6.106;2023-04-15T02:54:36;1.92;;;1.10;;
73150;SDS011;61354;50.758;6.106;2023-04-15T02:57:01;2.47;;;1.27;;
73150;SDS011;61354;50.758;6.106;2023-04-15T02:59:28;3.10;;;1.30;;
73150;SDS011;61354;50.758;6.106;2023-04-15T03:01:53;2.92;;;1.10;;
73150;SDS011;61354;50.758;6.106;2023-04-15T03:04:20;5.53;;;1.27;;
73150;SDS011;61354;50.758;6.106;2023-04-15T03:06:46;4.13;;;1.40;;
73150;SDS011;61354;50.758;6.106;2023-04-15T03:09:11;3.05;;;1.58;;
73150;SDS011;61354;50.758;6.106;2023-04-15T03:11:37;1.58;;;1.02;;
73150;SDS011;61354;50.758;6.106;2023-04-15T03:14:04;3.53;;;1.60;;
73150;SDS011;61354;50.758;6.106;2023-04-15T03:16:30;2.30;;;1.30;;
73150;SDS011;61354;50.758;6.106;2023-04-15T03:18:56;2.88;;;1.30;;
73150;SDS011;61354;50.758;6.106;2023-04-15T03:21:21;2.85;;;1.10;;
73150;SDS011;61354;50.758;6.106;2023-04-15T03:23:48;1.75;;;1.02;;
73150;SDS011;61354;50.758;6.106;2023-04-15T03:26:29;2.65;;;1.40;;
73150;SDS011;61354;50.758;6.106;2023-04-15T03:28:56;2.17;;;1.25;;
73150;SDS011;61354;50.758;6.106;2023-04-15T03:31:22;3.28;;;1.23;;
73150;SDS011;61354;50.758;6.106;2023-04-15T03:33:47;3.92;;;1.20;;
73150;SDS011;61354;50.758;6.106;2023-04-15T03:36:13;2.03;;;1.13;;
73150;SDS011;61354;50.758;6.106;2023-04-15T03:38:39;2.20;;;1.23;;
73150;SDS011;61354;50.758;6.106;2023-04-15T03:41:04;3.03;;;1.15;;
73150;SDS011;61354;50.758;6.106;2023-04-15T03:43:30;3.28;;;1.10;;
73150;SDS011;61354;50.758;6.106;2023-04-15T03:45:55;3.28;;;1.05;;
73150;SDS011;61354;50.758;6.106;2023-04-15T03:48:21;2.63;;;1.20;;
73150;SDS011;61354;50.758;6.106;2023-04-15T03:50:47;3.47;;;1.20;;
73150;SDS011;61354;50.758;6.106;2023-04-15T03:53:13;2.42;;;1.23;;
73150;SDS011;61354;50.758;6.106;2023-04-15T03:55:39;3.50;;;1.50;;
73150;SDS011;61354;50.758;6.106;2023-04-15T03:58:05;2.00;;;1.20;;
73150;SDS011;61354;50.758;6.106;2023-04-15T04:00:30;1.80;;;1.10;;
73150;SDS011;61354;50.758;6.106;2023-04-15T04:02:56;1.60;;;1.00;;
73150;SDS011;61354;50.758;6.106;2023-04-15T04:05:25;2.65;;;1.25;;
73150;SDS011;61354;50.758;6.106;2023-04-15T04:07:50;1.90;;;1.20;;
73150;SDS011;61354;50.758;6.106;2023-04-15T04:10:16;3.33;;;1.20;;
73150;SDS011;61354;50.758;6.106;2023-04-15T04:12:43;2.60;;;1.20;;
73150;SDS011;61354;50.758;6.106;2023-04-15T04:15:08;3.33;;;1.20;;
73150;SDS011;61354;50.758;6.106;2023-04-15T04:17:34;4.40;;;1.30;;
73150;SDS011;61354;50.758;6.106;2023-04-15T04:20:00;1.55;;;1.00;;
73150;SDS011;61354;50.758;6.106;2023-04-15T04:22:25;2.25;;;1.23;;
73150;SDS011;61354;50.758;6.106;2023-04-15T04:24:51;3.08;;;1.48;;
73150;SDS011;61354;50.758;6.106;2023-04-15T04:27:16;2.17;;;1.15;;
73150;SDS011;61354;50.758;6.106;2023-04-15T04:29:42;2.35;;;1.20;;
73150;SDS011;61354;50.758;6.106;2023-04-15T04:32:08;2.22;;;1.20;;
73150;SDS011;61354;50.758;6.106;2023-04-15T04:34:33;3.42;;;1.30;;
73150;SDS011;61354;50.758;6.106;2023-04-15T04:36:59;3.15;;;1.10;;
73150;SDS011;61354;50.758;6.106;2023-04-15T04:39:25;2.30;;;1.30;;
73150;SDS011;61354;50.758;6.106;2023-04-15T04:41:51;2.97;;;1.13;;
73150;SDS011;61354;50.758;6.106;2023-04-15T04:44:16;2.25;;;1.30;;
73150;SDS011;61354;50.758;6.106;2023-04-15T04:46:42;2.88;;;1.40;;
73150;SDS011;61354;50.758;6.106;2023-04-15T04:49:08;3.30;;;1.40;;
73150;SDS011;61354;50.758;6.106;2023-04-15T04:51:33;3.05;;;1.27;;
73150;SDS011;61354;50.758;6.106;2023-04-15T04:53:59;2.30;;;1.00;;
73150;SDS011;61354;50.758;6.106;2023-04-15T04:56:25;2.45;;;1.10;;
73150;SDS011;61354;50.758;6.106;2023-04-15T04:58:51;4.13;;;1.30;;
73150;SDS011;61354;50.758;6.106;2023-04-15T05:01:17;3.75;;;1.33;;
73150;SDS011;61354;50.758;6.106;2023-04-15T05:03:43;4.30;;;1.38;;
73150;SDS011;61354;50.758;6.106;2023-04-15T05:06:08;2.67;;;1.25;;
73150;SDS011;61354;50.758;6.106;2023-04-15T05:08:34;3.88;;;1.20;;
73150;SDS011;61354;50.758;6.106;2023-04-15T05:11:01;3.45;;;1.65;;
73150;SDS011;61354;50.758;6.106;2023-04-15T05:13:27;2.53;;;1.10;;
73150;SDS011;61354;50.758;6.106;2023-04-15T05:15:54;2.72;;;1.30;;
73150;SDS011;61354;50.758;6.106;2023-04-15T05:18:20;1.98;;;1.10;;
73150;SDS011;61354;50.758;6.106;2023-04-15T05:20:46;2.72;;;1.27;;
73150;SDS011;61354;50.758;6.106;2023-04-15T05:23:14;1.83;;;1.20;;
73150;SDS011;61354;50.758;6.106;2023-04-15T05:25:40;2.53;;;1.15;;
73150;SDS011;61354;50.758;6.106;2023-04-15T05:28:06;3.75;;;1.20;;
73150;SDS011;61354;50.758;6.106;2023-04-15T05:30:32;1.90;;;1.00;;
73150;SDS011;61354;50.758;6.106;2023-04-15T05:32:57;3.45;;;1.40;;
73150;SDS011;61354;50.758;6.106;2023-04-15T05:35:23;2.10;;;1.27;;
73150;SDS011;61354;50.758;6.106;2023-04-15T05:37:48;3.90;;;1.30;;
73150;SDS011;61354;50.758;6.106;2023-04-15T05:40:14;2.85;;;1.23;;
73150;SDS011;61354;50.758;6.106;2023-04-15T05:42:40;4.70;;;1.15;;
73150;SDS011;61354;50.758;6.106;2023-04-15T05:45:06;2.95;;;1.17;;
73150;SDS011;61354;50.758;6.106;2023-04-15T05:47:36;4.22;;;1.30;;
73150;SDS011;61354;50.758;6.106;2023-04-15T05:50:02;3.50;;;1.30;;
73150;SDS011;61354;50.758;6.106;2023-04-15T05:52:28;1.98;;;1.20;;
73150;SDS011;61354;50.758;6.106;2023-04-15T05:54:55;2.55;;;1.23;;
73150;SDS011;61354;50.758;6.106;2023-04-15T05:57:20;3.05;;;1.52;;
73150;SDS011;61354;50.758;6.106;2023-04-15T05:59:46;3.42;;;1.45;;
73150;SDS011;61354;50.758;6.106;2023-04-15T06:02:11;2.47;;;1.45;;
73150;SDS011;61354;50.758;6.106;2023-04-15T06:04:37;2.45;;;1.55;;
73150;SDS011;61354;50.758;6.106;2023-04-15T06:07:03;5.05;;;1.88;;
73150;SDS011;61354;50.758;6.106;2023-04-15T06:09:29;4.22;;;1.63;;
73150;SDS011;61354;50.758;6.106;2023-04-15T06:11:55;3.30;;;1.60;;
73150;SDS011;61354;50.758;6.106;2023-04-15T06:14:22;3.92;;;1.95;;
73150;SDS011;61354;50.758;6.106;2023-04-15T06:16:47;3.63;;;2.22;;
73150;SDS011;61354;50.758;6.106;2023-04-15T06:19:13;3.42;;;1.88;;
73150;SDS011;61354;50.758;6.106;2023-04-15T06:21:39;5.50;;;1.77;;
73150;SDS011;61354;50.758;6.106;2023-04-15T06:24:04;4.82;;;2.05;;
73150;SDS011;61354;50.758;6.106;2023-04-15T06:26:30;3.60;;;1.92;;
73150;SDS011;61354;50.758;6.106;2023-04-15T06:28:56;3.03;;;1.95;;
73150;SDS011;61354;50.758;6.106;2023-04-15T06:31:21;4.57;;;2.33;;
73150;SDS011;61354;50.758;6.106;2023-04-15T06:33:47;3.75;;;2.35;;
73150;SDS011;61354;50.758;6.106;2023-04-15T06:36:13;5.28;;;2.58;;
73150;SDS011;61354;50.758;6.106;2023-04-15T06:38:38;5.38;;;2.72;;
73150;SDS011;61354;50.758;6.106;2023-04-15T06:41:04;3.97;;;2.60;;
73150;SDS011;61354;50.758;6.106;2023-04-15T06:43:30;5.00;;;2.80;;
73150;SDS011;61354;50.758;6.106;2023-04-15T06:45:55;4.80;;;2.80;;
73150;SDS011;61354;50.758;6.106;2023-04-15T06:48:21;4.65;;;2.70;;
73150;SDS011;61354;50.758;6.106;2023-04-15T06:50:48;7.68;;;2.92;;
73150;SDS011;61354;50.758;6.106;2023-04-15T06:53:13;5.75;;;2.85;;
73150;SDS011;61354;50.758;6.106;2023-04-15T06:55:40;4.47;;;2.65;;
73150;SDS011;61354;50.758;6.106;2023-04-15T06:58:06;4.88;;;2.80;;
73150;SDS011;61354;50.758;6.106;2023-04-15T07:00:32;4.88;;;3.20;;
73150;SDS011;61354;50.758;6.106;2023-04-15T07:02:58;5.28;;;2.28;;
73150;SDS011;61354;50.758;6.106;2023-04-15T07:05:28;4.88;;;2.30;;
73150;SDS011;61354;50.758;6.106;2023-04-15T07:07:55;6.40;;;2.70;;
73150;SDS011;61354;50.758;6.106;2023-04-15T07:10:21;5.38;;;2.80;;
73150;SDS011;61354;50.758;6.106;2023-04-15T07:12:47;5.32;;;2.42;;
73150;SDS011;61354;50.758;6.106;2023-04-15T07:15:13;4.88;;;3.05;;
73150;SDS011;61354;50.758;6.106;2023-04-15T07:17:40;6.60;;;2.80;;
73150;SDS011;61354;50.758;6.106;2023-04-15T07:20:07;5.50;;;3.03;;
73150;SDS011;61354;50.758;6.106;2023-04-15T07:22:33;5.18;;;2.60;;
73150;SDS011;61354;50.758;6.106;2023-04-15T07:24:59;7.30;;;3.03;;
73150;SDS011;61354;50.758;6.106;2023-04-15T07:27:24;5.38;;;2.92;;
73150;SDS011;61354;50.758;6.106;2023-04-15T07:29:50;6.85;;;2.85;;
73150;SDS011;61354;50.758;6.106;2023-04-15T07:32:16;5.45;;;3.50;;
73150;SDS011;61354;50.758;6.106;2023-04-15T07:34:42;6.07;;;3.10;;
73150;SDS011;61354;50.758;6.106;2023-04-15T07:37:08;5.68;;;3.13;;
73150;SDS011;61354;50.758;6.106;2023-04-15T07:39:34;7.55;;;3.28;;
73150;SDS011;61354;50.758;6.106;2023-04-15T07:42:00;6.35;;;3.13;;
73150;SDS011;61354;50.758;6.106;2023-04-15T07:44:26;7.07;;;3.25;;
73150;SDS011;61354;50.758;6.106;2023-04-15T07:46:52;8.05;;;3.35;;
73150;SDS011;61354;50.758;6.106;2023-04-15T07:49:18;6.32;;;3.53;;
73150;SDS011;61354;50.758;6.106;2023-04-15T07:51:45;7.68;;;3.38;;
73150;SDS011;61354;50.758;6.106;2023-04-15T07:54:11;6.50;;;3.55;;
73150;SDS011;61354;50.758;6.106;2023-04-15T07:56:36;6.55;;;3.30;;
73150;SDS011;61354;50.758;6.106;2023-04-15T07:59:02;5.75;;;3.13;;
73150;SDS011;61354;50.758;6.106;2023-04-15T08:01:29;7.25;;;3.88;;
73150;SDS011;61354;50.758;6.106;2023-04-15T08:03:55;8.98;;;3.88;;
73150;SDS011;61354;50.758;6.106;2023-04-15T08:06:21;6.88;;;3.42;;
73150;SDS011;61354;50.758;6.106;2023-04-15T08:08:47;5.97;;;3.30;;
73150;SDS011;61354;50.758;6.106;2023-04-15T08:11:13;8.00;;;3.40;;
73150;SDS011;61354;50.758;6.106;2023-04-15T08:13:38;9.07;;;4.22;;
73150;SDS011;61354;50.758;6.106;2023-04-15T08:18:44;9.32;;;4.10;;
73150;SDS011;61354;50.758;6.106;2023-04-15T08:21:12;7.10;;;4.35;;
73150;SDS011;61354;50.758;6.106;2023-04-15T08:23:39;6.35;;;4.40;;
73150;SDS011;61354;50.758;6.106;2023-04-15T08:26:05;8.70;;;5.05;;
73150;SDS011;61354;50.758;6.106;2023-04-15T08:28:31;8.63;;;4.63;;
73150;SDS011;61354;50.758;6.106;2023-04-15T08:30:57;7.32;;;4.28;;
73150;SDS011;61354;50.758;6.106;2023-04-15T08:33:23;9.23;;;4.88;;
73150;SDS011;61354;50.758;6.106;2023-04-15T08:35:48;7.85;;;5.07;;
73150;SDS011;61354;50.758;6.106;2023-04-15T08:38:14;7.75;;;4.95;;
73150;SDS011;61354;50.758;6.106;2023-04-15T08:40:40;9.25;;;5.80;;
73150;SDS011;61354;50.758;6.106;2023-04-15T08:43:11;9.63;;;5.80;;
73150;SDS011;61354;50.758;6.106;2023-04-15T08:45:42;8.45;;;5.40;;
73150;SDS011;61354;50.758;6.106;2023-04-15T08:48:12;8.75;;;5.05;;
73150;SDS011;61354;50.758;6.106;2023-04-15T08:50:41;7.57;;;4.93;;
73150;SDS011;61354;50.758;6.106;2023-04-15T08:53:06;9.60;;;5.80;;
73150;SDS011;61354;50.758;6.106;2023-04-15T08:55:33;8.85;;;5.28;;
73150;SDS011;61354;50.758;6.106;2023-04-15T08:58:01;8.73;;;5.55;;
73150;SDS011;61354;50.758;6.106;2023-04-15T09:00:27;10.18;;;5.32;;
73150;SDS011;61354;50.758;6.106;2023-04-15T09:02:57;9.93;;;5.28;;
73150;SDS011;61354;50.758;6.106;2023-04-15T09:05:23;9.93;;;5.30;;
73150;SDS011;61354;50.758;6.106;2023-04-15T09:07:51;9.90;;;6.10;;
73150;SDS011;61354;50.758;6.106;2023-04-15T09:10:17;11.35;;;5.95;;
73150;SDS011;61354;50.758;6.106;2023-04-15T09:12:43;9.90;;;5.95;;
73150;SDS011;61354;50.758;6.106;2023-04-15T09:15:11;9.23;;;5.60;;
73150;SDS011;61354;50.758;6.106;2023-04-15T09:17:43;9.13;;;5.82;;
73150;SDS011;61354;50.758;6.106;2023-04-15T09:20:10;12.00;;;6.55;;
73150;SDS011;61354;50.758;6.106;2023-04-15T09:22:37;7.70;;;5.60;;
73150;SDS011;61354;50.758;6.106;2023-04-15T09:25:46;9.45;;;6.00;;
73150;SDS011;61354;50.758;6.106;2023-04-15T09:30:20;7.35;;;5.32;;
73150;SDS011;61354;50.758;6.106;2023-04-15T09:32:54;8.77;;;5.93;;
73150;SDS011;61354;50.758;6.106;2023-04-15T09:35:24;12.52;;;6.68;;
73150;SDS011;61354;50.758;6.106;2023-04-15T09:37:51;9.65;;;5.85;;
73150;SDS011;61354;50.758;6.106;2023-04-15T09:40:32;8.63;;;5.25;;
73150;SDS011;61354;50.758;6.106;2023-04-15T09:43:02;10.55;;;5.57;;
73150;SDS011;61354;50.758;6.106;2023-04-15T09:45:30;8.02;;;4.32;;
73150;SDS011;61354;50.758;6.106;2023-04-15T09:47:57;6.68;;;3.85;;
73150;SDS011;61354;50.758;6.106;2023-04-15T09:50:26;7.20;;;4.10;;
73150;SDS011;61354;50.758;6.106;2023-04-15T09:52:56;6.72;;;3.80;;
73150;SDS011;61354;50.758;6.106;2023-04-15T09:55:21;7.07;;;4.68;;
73150;SDS011;61354;50.758;6.106;2023-04-15T09:57:47;5.80;;;3.90;;
73150;SDS011;61354;50.758;6.106;2023-04-15T10:00:13;5.50;;;3.60;;
73150;SDS011;61354;50.758;6.106;2023-04-15T10:02:39;6.32;;;4.00;;
73150;SDS011;61354;50.758;6.106;2023-04-15T10:05:06;7.47;;;3.70;;
73150;SDS011;61354;50.758;6.106;2023-04-15T10:07:36;9.27;;;4.00;;
73150;SDS011;61354;50.758;6.106;2023-04-15T10:10:02;6.78;;;3.55;;
73150;SDS011;61354;50.758;6.106;2023-04-15T10:12:29;8.05;;;4.05;;
73150;SDS011;61354;50.758;6.106;2023-04-15T10:14:57;5.95;;;3.92;;
73150;SDS011;61354;50.758;6.106;2023-04-15T10:17:28;7.53;;;4.18;;
73150;SDS011;61354;50.758;6.106;2023-04-15T10:20:03;7.05;;;4.15;;
73150;SDS011;61354;50.758;6.106;2023-04-15T10:22:29;7.32;;;4.13;;
73150;SDS011;61354;50.758;6.106;2023-04-15T10:24:56;7.68;;;4.45;;
73150;SDS011;61354;50.758;6.106;2023-04-15T10:27:22;6.72;;;4.32;;
73150;SDS011;61354;50.758;6.106;2023-04-15T10:29:49;7.40;;;4.30;;
73150;SDS011;61354;50.758;6.106;2023-04-15T10:32:17;6.25;;;4.30;;
73150;SDS011;61354;50.758;6.106;2023-04-15T10:34:45;6.25;;;4.05;;
73150;SDS011;61354;50.758;6.106;2023-04-15T10:37:18;7.70;;;4.43;;
73150;SDS011;61354;50.758;6.106;2023-04-15T10:39:57;7.22;;;4.35;;
73150;SDS011;61354;50.758;6.106;2023-04-15T10:42:32;8.85;;;4.63;;
73150;SDS011;61354;50.758;6.106;2023-04-15T10:44:59;8.55;;;4.80;;
73150;SDS011;61354;50.758;6.106;2023-04-15T10:47:25;7.13;;;4.53;;
73150;SDS011;61354;50.758;6.106;2023-04-15T10:49:51;7.90;;;4.60;;
73150;SDS011;61354;50.758;6.106;2023-04-15T10:52:25;6.63;;;4.22;;
73150;SDS011;61354;50.758;6.106;2023-04-15T10:55:12;7.00;;;3.97;;
73150;SDS011;61354;50.758;6.106;2023-04-15T10:57:42;6.80;;;4.18;;
73150;SDS011;61354;50.758;6.106;2023-04-15T11:05:18;6.13;;;3.45;;
73150;SDS011;61354;50.758;6.106;2023-04-15T11:12:45;5.38;;;2.85;;
73150;SDS011;61354;50.758;6.106;2023-04-15T11:20:42;6.10;;;3.10;;
73150;SDS011;61354;50.758;6.106;2023-04-15T11:23:12;4.65;;;2.67;;
73150;SDS011;61354;50.758;6.106;2023-04-15T11:25:39;5.07;;;2.30;;
73150;SDS011;61354;50.758;6.106;2023-04-15T11:28:05;3.97;;;2.22;;
73150;SDS011;61354;50.758;6.106;2023-04-15T11:30:32;5.38;;;2.72;;
73150;SDS011;61354;50.758;6.106;2023-04-15T11:33:00;4.40;;;2.30;;
73150;SDS011;61354;50.758;6.106;2023-04-15T11:35:28;5.25;;;2.67;;
73150;SDS011;61354;50.758;6.106;2023-04-15T11:37:54;5.10;;;2.88;;
73150;SDS011;61354;50.758;6.106;2023-04-15T11:40:28;5.72;;;3.33;;
73150;SDS011;61354;50.758;6.106;2023-04-15T11:45:55;3.72;;;2.33;;
73150;SDS011;61354;50.758;6.106;2023-04-15T11:48:25;6.03;;;3.53;;
73150;SDS011;61354;50.758;6.106;2023-04-15T11:51:00;5.90;;;3.25;;
73150;SDS011;61354;50.758;6.106;2023-04-15T11:53:48;6.57;;;3.30;;
73150;SDS011;61354;50.758;6.106;2023-04-15T11:56:23;5.75;;;3.03;;
73150;SDS011;61354;50.758;6.106;2023-04-15T11:58:54;4.07;;;2.15;;
73150;SDS011;61354;50.758;6.106;2023-04-15T12:01:30;3.53;;;1.92;;
73150;SDS011;61354;50.758;6.106;2023-04-15T12:03:59;3.28;;;1.90;;
73150;SDS011;61354;50.758;6.106;2023-04-15T12:06:30;4.95;;;2.33;;
73150;SDS011;61354;50.758;6.106;2023-04-15T12:09:02;3.72;;;2.30;;
73150;SDS011;61354;50.758;6.106;2023-04-15T12:11:33;4.88;;;2.30;;
73150;SDS011;61354;50.758;6.106;2023-04-15T12:14:04;5.82;;;2.45;;
73150;SDS011;61354;50.758;6.106;2023-04-15T12:16:32;4.40;;;2.25;;
73150;SDS011;61354;50.758;6.106;2023-04-15T12:19:00;4.47;;;2.50;;
73150;SDS011;61354;50.758;6.106;2023-04-15T12:21:32;4.30;;;2.10;;
73150;SDS011;61354;50.758;6.106;2023-04-15T12:24:05;4.80;;;2.40;;
73150;SDS011;61354;50.758;6.106;2023-04-15T12:26:34;4.88;;;2.30;;
73150;SDS011;61354;50.758;6.106;2023-04-15T12:29:07;4.28;;;2.50;;
73150;SDS011;61354;50.758;6.106;2023-04-15T12:31:35;5.22;;;2.80;;
73150;SDS011;61354;50.758;6.106;2023-04-15T12:34:01;5.80;;;2.97;;
73150;SDS011;61354;50.758;6.106;2023-04-15T12:36:30;4.97;;;2.70;;
73150;SDS011;61354;50.758;6.106;2023-04-15T12:39:01;3.97;;;2.33;;
73150;SDS011;61354;50.758;6.106;2023-04-15T12:43:53;4.88;;;2.63;;
73150;SDS011;61354;50.758;6.106;2023-04-15T12:46:19;4.75;;;2.83;;
73150;SDS011;61354;50.758;6.106;2023-04-15T12:48:45;5.35;;;3.05;;
73150;SDS011;61354;50.758;6.106;2023-04-15T12:51:11;4.63;;;2.97;;
73150;SDS011;61354;50.758;6.106;2023-04-15T12:53:38;5.05;;;3.22;;
73150;SDS011;61354;50.758;6.106;2023-04-15T12:56:03;4.95;;;2.67;;
73150;SDS011;61354;50.758;6.106;2023-04-15T12:58:30;5.45;;;2.70;;
73150;SDS011;61354;50.758;6.106;2023-04-15T13:00:56;4.78;;;2.63;;
73150;SDS011;61354;50.758;6.106;2023-04-15T13:03:22;5.07;;;2.97;;
73150;SDS011;61354;50.758;6.106;2023-04-15T13:05:47;4.70;;;2.53;;
73150;SDS011;61354;50.758;6.106;2023-04-15T13:08:13;4.85;;;2.70;;
73150;SDS011;61354;50.758;6.106;2023-04-15T13:10:39;3.95;;;2.55;;
73150;SDS011;61354;50.758;6.106;2023-04-15T13:13:06;5.05;;;2.90;;
73150;SDS011;61354;50.758;6.106;2023-04-15T13:15:32;5.15;;;2.80;;
73150;SDS011;61354;50.758;6.106;2023-04-15T13:17:58;4.80;;;3.10;;
73150;SDS011;61354;50.758;6.106;2023-04-15T13:20:24;5.40;;;2.90;;
73150;SDS011;61354;50.758;6.106;2023-04-15T13:22:53;5.68;;;3.25;;
73150;SDS011;61354;50.758;6.106;2023-04-15T13:25:19;5.68;;;3.22;;
73150;SDS011;61354;50.758;6.106;2023-04-15T13:27:44;4.88;;;2.80;;
73150;SDS011;61354;50.758;6.106;2023-04-15T13:30:10;4.60;;;2.65;;
73150;SDS011;61354;50.758;6.106;2023-04-15T13:32:36;4.05;;;2.25;;
73150;SDS011;61354;50.758;6.106;2023-04-15T13:35:01;3.85;;;2.10;;
73150;SDS011;61354;50.758;6.106;2023-04-15T13:37:28;4.00;;;2.05;;
73150;SDS011;61354;50.758;6.106;2023-04-15T13:39:54;4.20;;;2.50;;
73150;SDS011;61354;50.758;6.106;2023-04-15T13:42:20;4.00;;;2.33;;
73150;SDS011;61354;50.758;6.106;2023-04-15T13:44:48;4.07;;;2.65;;
73150;SDS011;61354;50.758;6.106;2023-04-15T13:47:14;4.75;;;2.70;;
73150;SDS011;61354;50.758;6.106;2023-04-15T13:49:40;4.82;;;2.65;;
73150;SDS011;61354;50.758;6.106;2023-04-15T13:52:06;4.30;;;2.80;;
73150;SDS011;61354;50.758;6.106;2023-04-15T13:54:31;5.55;;;3.00;;
73150;SDS011;61354;50.758;6.106;2023-04-15T13:56:57;4.32;;;2.53;;
73150;SDS011;61354;50.758;6.106;2023-04-15T13:59:22;4.90;;;2.97;;
73150;SDS011;61354;50.758;6.106;2023-04-15T14:01:48;4.03;;;2.63;;
73150;SDS011;61354;50.758;6.106;2023-04-15T14:04:14;4.95;;;2.88;;
73150;SDS011;61354;50.758;6.106;2023-04-15T14:06:40;5.53;;;2.75;;
73150;SDS011;61354;50.758;6.106;2023-04-15T14:09:05;4.65;;;2.53;;
73150;SDS011;61354;50.758;6.106;2023-04-15T14:11:31;5.00;;;2.72;;
73150;SDS011;61354;50.758;6.106;2023-04-15T14:13:59;5.65;;;2.60;;
73150;SDS011;61354;50.758;6.106;2023-04-15T14:16:25;5.07;;;2.97;;
73150;SDS011;61354;50.758;6.106;2023-04-15T14:18:50;6.32;;;2.92;;
73150;SDS011;61354;50.758;6.106;2023-04-15T14:21:16;4.53;;;2.97;;
73150;SDS011;61354;50.758;6.106;2023-04-15T14:23:41;4.75;;;2.78;;
73150;SDS011;61354;50.758;6.106;2023-04-15T14:26:07;5.43;;;2.58;;
73150;SDS011;61354;50.758;6.106;2023-04-15T14:28:33;4.10;;;2.60;;
73150;SDS011;61354;50.758;6.106;2023-04-15T14:30:59;4.28;;;2.30;;
73150;SDS011;61354;50.758;6.106;2023-04-15T14:33:24;4.55;;;2.60;;
73150;SDS011;61354;50.758;6.106;2023-04-15T14:35:50;4.20;;;2.30;;
73150;SDS011;61354;50.758;6.106;2023-04-15T14:38:15;4.78;;;2.70;;
73150;SDS011;61354;50.758;6.106;2023-04-15T14:40:41;6.63;;;2.75;;
73150;SDS011;61354;50.758;6.106;2023-04-15T14:43:07;5.22;;;2.50;;
73150;SDS011;61354;50.758;6.106;2023-04-15T14:45:32;4.90;;;2.42;;
73150;SDS011;61354;50.758;6.106;2023-04-15T14:47:58;5.80;;;2.45;;
73150;SDS011;61354;50.758;6.106;2023-04-15T14:50:24;4.35;;;2.20;;
73150;SDS011;61354;50.758;6.106;2023-04-15T14:52:50;4.60;;;2.38;;
73150;SDS011;61354;50.758;6.106;2023-04-15T14:55:15;4.10;;;2.40;;
73150;SDS011;61354;50.758;6.106;2023-04-15T14:57:41;3.83;;;2.25;;
73150;SDS011;61354;50.758;6.106;2023-04-15T15:00:08;3.25;;;2.10;;
73150;SDS011;61354;50.758;6.106;2023-04-15T15:02:35;4.47;;;2.20;;
73150;SDS011;61354;50.758;6.106;2023-04-15T15:05:02;3.97;;;2.10;;
73150;SDS011;61354;50.758;6.106;2023-04-15T15:07:28;4.40;;;2.13;;
73150;SDS011;61354;50.758;6.106;2023-04-15T15:09:54;3.85;;;2.25;;
73150;SDS011;61354;50.758;6.106;2023-04-15T15:12:20;3.78;;;1.85;;